KASL/ASL METAR and TAF weather

Enter ICAO airport designator
Station Type Date Time Source
KASL METAR 2023/03/21 16:15 UTC NOAA

KASL 211615Z AUTO 17011G19KT 10SM FEW022 SCT035 15/10 A3010 RMK AO2 T01510099 $


Station Type Date Time Source
KASL Decoded METAR 2023/03/21 16:15 UTC NOAA

Station name not available
Mar 21, 2023 - 12:15 PM EDT / 2023.03.21 1615 UTC
Wind: from the S (170 degrees) at 13 MPH (11 KT) gusting to 22 MPH (19 KT):0
Visibility: 10 mile(s):0
Sky conditions: partly cloudy
Temperature: 59.2 F (15.1 C)
Dew Point: 49.8 F (9.9 C)
Relative Humidity: 71%
Pressure (altimeter): 30.1 in. Hg (1019 hPa)
ob: KASL 211615Z AUTO 17011G19KT 10SM FEW022 SCT035 15/10 A3010 RMK AO2 T01510099
cycle: 16

Station Type Date Time Source
KASL TAF UTC NOAA

Error!

Example: see airport list